createdAt,value
2018-02-25T00:00:06.133Z,-9.20
2018-02-25T00:02:33.665Z,-9.30
2018-02-25T00:05:01.991Z,-9.30
2018-02-25T00:07:29.509Z,-9.30
2018-02-25T00:09:57.796Z,-9.40
2018-02-25T00:12:25.344Z,-9.40
2018-02-25T00:14:53.637Z,-9.40
2018-02-25T00:17:21.189Z,-9.40
2018-02-25T00:19:49.586Z,-9.40
2018-02-25T00:22:28.926Z,-9.50
2018-02-25T00:24:56.468Z,-9.50
2018-02-25T00:27:24.765Z,-9.50
2018-02-25T00:29:52.298Z,-9.50
2018-02-25T00:32:19.841Z,-9.50
2018-02-25T00:34:47.359Z,-9.60
2018-02-25T00:37:14.874Z,-9.70
2018-02-25T00:39:42.414Z,-9.70
2018-02-25T00:42:09.933Z,-9.70
2018-02-25T00:44:38.221Z,-9.70
2018-02-25T00:47:05.783Z,-9.80
2018-02-25T00:49:34.066Z,-9.90
2018-02-25T00:52:02.356Z,-10.00
2018-02-25T00:54:29.918Z,-10.00
2018-02-25T00:56:57.442Z,-9.90
2018-02-25T00:59:24.961Z,-10.00
2018-02-25T01:01:52.489Z,-9.90
2018-02-25T01:04:20.764Z,-9.90
2018-02-25T01:06:49.068Z,-10.00
2018-02-25T01:09:16.589Z,-10.10
2018-02-25T01:11:44.113Z,-10.10
2018-02-25T01:14:11.654Z,-10.10
2018-02-25T01:16:39.171Z,-10.10
2018-02-25T01:19:07.458Z,-10.10
2018-02-25T01:21:34.990Z,-10.10
2018-02-25T01:24:02.518Z,-10.10
2018-02-25T01:26:30.802Z,-10.20
2018-02-25T01:28:59.137Z,-10.20
2018-02-25T01:31:26.661Z,-10.20
2018-02-25T01:33:54.225Z,-10.10
2018-02-25T01:36:21.770Z,-10.10
2018-02-25T01:38:50.065Z,-10.10
2018-02-25T01:41:17.582Z,-10.20
2018-02-25T01:43:45.141Z,-10.10
2018-02-25T01:46:12.659Z,-10.20
2018-02-25T01:48:40.168Z,-10.20
2018-02-25T01:51:07.713Z,-10.10
2018-02-25T01:53:35.240Z,-10.20
2018-02-25T01:56:02.765Z,-10.20
2018-02-25T01:58:30.304Z,-10.20
2018-02-25T02:00:57.844Z,-10.20
2018-02-25T02:03:25.361Z,-10.20
2018-02-25T02:05:52.996Z,-10.30
2018-02-25T02:08:20.519Z,-10.40
2018-02-25T02:10:48.038Z,-10.40
2018-02-25T02:13:15.617Z,-10.40
2018-02-25T02:15:43.141Z,-10.40
2018-02-25T02:18:10.662Z,-10.50
2018-02-25T02:20:39.066Z,-10.50
2018-02-25T02:23:06.585Z,-10.50
2018-02-25T02:25:34.100Z,-10.50
2018-02-25T02:28:01.637Z,-10.50
2018-02-25T02:30:29.921Z,-10.50
2018-02-25T02:32:57.450Z,-10.50
2018-02-25T02:35:25.096Z,-10.70
2018-02-25T02:37:52.615Z,-10.60
2018-02-25T02:40:20.897Z,-10.70
2018-02-25T02:42:49.196Z,-10.70
2018-02-25T02:45:16.709Z,-10.70
2018-02-25T02:47:45.013Z,-10.70
2018-02-25T02:50:12.550Z,-10.70
2018-02-25T02:52:40.062Z,-10.70
2018-02-25T02:55:07.579Z,-10.70
2018-02-25T02:57:35.119Z,-10.80
2018-02-25T03:00:02.637Z,-10.80
2018-02-25T03:02:30.922Z,-10.90
2018-02-25T03:04:58.466Z,-10.90
2018-02-25T03:07:26.757Z,-10.90
2018-02-25T03:09:55.165Z,-10.90
2018-02-25T03:12:22.670Z,-10.90
2018-02-25T03:14:50.177Z,-10.90
2018-02-25T03:17:17.703Z,-11.00
2018-02-25T03:19:45.218Z,-10.90
2018-02-25T03:22:12.731Z,-11.00
2018-02-25T03:24:40.269Z,-11.00
2018-02-25T03:27:07.773Z,-11.00
2018-02-25T03:29:36.049Z,-11.00
2018-02-25T03:32:04.363Z,-10.90
2018-02-25T03:34:31.883Z,-11.00
2018-02-25T03:36:59.401Z,-10.90
2018-02-25T03:39:26.948Z,-10.90
2018-02-25T03:41:54.461Z,-11.00
2018-02-25T03:44:21.981Z,-11.00
2018-02-25T03:46:49.612Z,-11.00
2018-02-25T03:49:17.139Z,-10.90
2018-02-25T03:51:44.657Z,-11.00
2018-02-25T03:54:13.054Z,-11.00
2018-02-25T03:56:40.573Z,-11.00
2018-02-25T03:59:08.083Z,-11.10
2018-02-25T04:01:35.619Z,-11.10
2018-02-25T04:04:03.903Z,-11.00
2018-02-25T04:06:32.193Z,-11.00
2018-02-25T04:09:00.578Z,-11.10
2018-02-25T04:11:28.852Z,-11.00
2018-02-25T04:13:57.140Z,-11.00
2018-02-25T04:16:24.672Z,-11.00
2018-02-25T04:18:52.181Z,-11.10
2018-02-25T04:21:19.689Z,-11.00
2018-02-25T04:23:47.329Z,-11.00
2018-02-25T04:26:14.873Z,-11.00
2018-02-25T04:28:42.383Z,-11.00
2018-02-25T04:31:09.921Z,-11.00
2018-02-25T04:33:37.448Z,-11.10
2018-02-25T04:36:04.979Z,-11.10
2018-02-25T04:38:32.511Z,-11.10
2018-02-25T04:41:00.036Z,-11.20
2018-02-25T04:43:27.558Z,-11.20
2018-02-25T04:45:55.181Z,-11.20
2018-02-25T04:48:22.691Z,-11.30
2018-02-25T04:50:50.221Z,-11.20
2018-02-25T04:53:17.763Z,-11.40
2018-02-25T04:55:45.274Z,-11.30
2018-02-25T04:58:12.786Z,-11.30
2018-02-25T05:00:40.326Z,-11.40
2018-02-25T05:03:08.603Z,-11.50
2018-02-25T05:05:36.117Z,-11.50
2018-02-25T05:08:03.661Z,-11.40
2018-02-25T05:10:31.183Z,-11.40
2018-02-25T05:12:58.700Z,-11.40
2018-02-25T05:15:26.253Z,-11.40
2018-02-25T05:17:53.777Z,-11.30
2018-02-25T05:20:21.293Z,-11.40
2018-02-25T05:22:48.917Z,-11.40
2018-02-25T05:25:17.197Z,-11.30
2018-02-25T05:27:45.476Z,-11.30
2018-02-25T05:30:13.776Z,-11.40
2018-02-25T05:32:41.295Z,-11.40
2018-02-25T05:35:08.827Z,-11.30
2018-02-25T05:37:36.368Z,-11.30
2018-02-25T05:40:03.877Z,-11.30
2018-02-25T05:42:31.384Z,-11.20
2018-02-25T05:44:59.785Z,-11.30
2018-02-25T05:47:27.301Z,-11.30
2018-02-25T05:49:54.826Z,-11.20
2018-02-25T05:52:22.359Z,-11.20
2018-02-25T05:54:50.640Z,-11.20
2018-02-25T05:57:18.971Z,-11.10
2018-02-25T05:59:46.506Z,-11.10
2018-02-25T06:02:14.027Z,-11.10
2018-02-25T06:04:42.357Z,-11.10
2018-02-25T06:07:09.872Z,-11.10
2018-02-25T06:09:37.402Z,-11.10
2018-02-25T06:12:05.035Z,-11.00
2018-02-25T06:14:32.554Z,-11.00
2018-02-25T06:17:00.080Z,-10.90
2018-02-25T06:19:27.741Z,-11.00
2018-02-25T06:21:55.263Z,-11.00
2018-02-25T06:24:23.567Z,-10.90
2018-02-25T06:26:51.117Z,-10.90
2018-02-25T06:29:19.419Z,-11.00
2018-02-25T06:31:46.943Z,-11.00
2018-02-25T06:34:14.570Z,-10.90
2018-02-25T06:36:42.084Z,-10.80
2018-02-25T06:39:10.370Z,-10.80
2018-02-25T06:41:37.926Z,-10.80
2018-02-25T06:44:06.251Z,-10.70
2018-02-25T06:46:33.764Z,-10.70
2018-02-25T06:49:01.328Z,-10.70
2018-02-25T06:51:28.907Z,-10.60
2018-02-25T06:53:57.209Z,-10.50
2018-02-25T06:56:24.817Z,-10.60
2018-02-25T06:58:52.358Z,-10.60
2018-02-25T07:01:19.906Z,-10.40
2018-02-25T07:03:47.465Z,-10.50
2018-02-25T07:06:15.009Z,-10.50
2018-02-25T07:08:43.308Z,-10.40
2018-02-25T07:11:10.875Z,-10.40
2018-02-25T07:13:38.393Z,-10.20
2018-02-25T07:16:05.963Z,-10.20
2018-02-25T07:18:34.286Z,-10.20
2018-02-25T07:21:01.826Z,-10.30
2018-02-25T07:23:30.108Z,-10.00
2018-02-25T07:25:58.449Z,-10.10
2018-02-25T07:28:25.979Z,-10.10
2018-02-25T07:30:53.596Z,-10.20
2018-02-25T07:33:21.920Z,-10.20
2018-02-25T07:35:49.479Z,-10.20
2018-02-25T07:38:17.053Z,-10.20
2018-02-25T07:40:44.595Z,-10.00
2018-02-25T07:43:12.148Z,-9.80
2018-02-25T07:45:40.442Z,-9.80
2018-02-25T07:48:08.001Z,-9.80
2018-02-25T07:50:35.526Z,-9.60
2018-02-25T07:53:03.045Z,-9.70
2018-02-25T07:55:30.606Z,-9.50
2018-02-25T07:57:58.180Z,-9.50
2018-02-25T08:00:25.764Z,-9.50
2018-02-25T08:02:53.322Z,-9.70
2018-02-25T08:05:20.844Z,-9.60
2018-02-25T08:07:49.128Z,-9.60
2018-02-25T08:10:16.674Z,-9.60
2018-02-25T08:12:44.993Z,-9.60
2018-02-25T08:15:12.516Z,-9.60
2018-02-25T08:17:40.094Z,-9.50
2018-02-25T08:20:08.380Z,-9.30
2018-02-25T08:22:36.065Z,-9.40
2018-02-25T08:25:03.650Z,-9.50
2018-02-25T08:27:31.198Z,-9.20
2018-02-25T08:29:58.724Z,-9.10
2018-02-25T08:32:27.073Z,-9.10
2018-02-25T08:34:55.384Z,-9.10
2018-02-25T08:37:23.696Z,-9.10
2018-02-25T08:39:51.227Z,-9.10
2018-02-25T08:42:19.566Z,-9.40
2018-02-25T08:44:47.103Z,-9.40
2018-02-25T08:47:14.634Z,-9.50
2018-02-25T08:49:42.933Z,-9.40
2018-02-25T08:52:10.492Z,-9.40
2018-02-25T08:54:38.796Z,-9.20
2018-02-25T08:57:06.314Z,-9.30
2018-02-25T08:59:33.890Z,-9.40
2018-02-25T09:02:02.184Z,-9.30
2018-02-25T09:04:30.489Z,-9.10
2018-02-25T09:06:58.094Z,-9.10
2018-02-25T09:09:25.620Z,-8.60
2018-02-25T09:11:53.149Z,-8.60
2018-02-25T09:14:21.475Z,-8.80
2018-02-25T09:16:49.005Z,-8.80
2018-02-25T09:19:16.549Z,-8.80
2018-02-25T09:21:44.869Z,-8.40
2018-02-25T09:24:12.433Z,-8.40
2018-02-25T09:26:39.974Z,-8.10
2018-02-25T09:29:07.533Z,-8.40
2018-02-25T09:31:35.067Z,-8.10
2018-02-25T09:34:02.606Z,-8.00
2018-02-25T09:36:30.177Z,-8.10
2018-02-25T09:38:57.713Z,-8.20
2018-02-25T09:41:25.321Z,-8.10
2018-02-25T09:43:52.821Z,-8.00
2018-02-25T09:46:20.411Z,-8.20
2018-02-25T09:48:47.927Z,-7.80
2018-02-25T09:51:16.430Z,-7.60
2018-02-25T09:53:44.921Z,-7.10
2018-02-25T09:56:13.239Z,-6.80
2018-02-25T09:58:40.779Z,-6.80
2018-02-25T10:01:08.384Z,-7.20
2018-02-25T10:03:35.916Z,-7.30
2018-02-25T10:06:03.439Z,-7.20
2018-02-25T10:08:31.746Z,-6.80
2018-02-25T10:10:59.287Z,-6.80
2018-02-25T10:13:27.625Z,-6.70
2018-02-25T10:15:55.141Z,-6.70
2018-02-25T10:18:23.472Z,-6.80
2018-02-25T10:20:51.014Z,-6.80
2018-02-25T10:23:18.543Z,-6.90
2018-02-25T10:25:46.860Z,-7.00
2018-02-25T10:28:14.436Z,-7.00
2018-02-25T10:30:42.036Z,-6.80
2018-02-25T10:33:09.605Z,-6.80
2018-02-25T10:35:37.940Z,-6.40
2018-02-25T10:38:05.456Z,-6.40
2018-02-25T10:40:33.858Z,-7.10
2018-02-25T10:43:02.173Z,-7.00
2018-02-25T10:45:29.780Z,-7.00
2018-02-25T10:47:57.432Z,-7.10
2018-02-25T10:50:24.951Z,-6.60
2018-02-25T10:52:52.564Z,-6.50
2018-02-25T10:55:20.149Z,-6.10
2018-02-25T10:57:48.429Z,-6.30
2018-02-25T11:00:22.552Z,-6.50
2018-02-25T11:02:50.915Z,-6.80
2018-02-25T11:05:18.471Z,-6.80
2018-02-25T11:07:46.032Z,-6.70
2018-02-25T11:10:13.631Z,-6.70
2018-02-25T11:12:41.959Z,-7.20
2018-02-25T11:15:09.689Z,-7.20
2018-02-25T11:17:37.375Z,-7.10
2018-02-25T11:20:04.973Z,-7.20
2018-02-25T11:22:32.655Z,-7.20
2018-02-25T11:25:01.124Z,-7.10
2018-02-25T11:27:28.718Z,-7.20
2018-02-25T11:29:57.342Z,-7.30
2018-02-25T11:32:24.922Z,-7.30
2018-02-25T11:34:52.539Z,-7.40
2018-02-25T11:37:21.011Z,-6.70
2018-02-25T11:39:48.588Z,-6.70
2018-02-25T11:42:16.889Z,-6.00
2018-02-25T11:44:44.504Z,-6.00
2018-02-25T11:47:11.993Z,-5.90
2018-02-25T11:49:40.343Z,-6.60
2018-02-25T11:52:07.881Z,-6.70
2018-02-25T11:54:35.409Z,-6.70
2018-02-25T11:57:03.826Z,-6.80
2018-02-25T11:59:31.378Z,-6.80
2018-02-25T12:01:59.036Z,-7.10
2018-02-25T12:04:26.786Z,-7.20
2018-02-25T12:06:55.148Z,-7.30
2018-02-25T12:09:23.667Z,-7.20
2018-02-25T12:11:51.287Z,-7.30
2018-02-25T12:14:19.009Z,-7.20
2018-02-25T12:16:46.739Z,-6.80
2018-02-25T12:19:14.495Z,-6.80
2018-02-25T12:21:42.178Z,-7.00
2018-02-25T12:24:10.566Z,-6.90
2018-02-25T12:26:38.952Z,-7.10
2018-02-25T12:29:07.415Z,-7.20
2018-02-25T12:31:35.266Z,-7.20
2018-02-25T12:34:03.093Z,-7.20
2018-02-25T12:36:30.675Z,-7.10
2018-02-25T13:02:57.152Z,-6.80
2018-02-25T13:05:24.708Z,-6.90
2018-02-25T13:07:52.268Z,-6.90
2018-02-25T13:10:19.805Z,-7.10
2018-02-25T13:12:48.104Z,-7.20
2018-02-25T13:15:15.633Z,-7.20
2018-02-25T13:17:43.288Z,-7.20
2018-02-25T13:20:10.851Z,-7.00
2018-02-25T13:22:38.382Z,-6.90
2018-02-25T13:25:05.930Z,-6.90
2018-02-25T13:27:33.559Z,-6.90
2018-02-25T13:30:01.089Z,-6.90
2018-02-25T13:32:28.670Z,-7.20
2018-02-25T13:34:56.197Z,-7.00
2018-02-25T13:37:23.796Z,-7.00
2018-02-25T13:39:51.460Z,-6.90
2018-02-25T13:42:19.084Z,-6.70
2018-02-25T13:44:46.623Z,-6.70
2018-02-25T13:47:14.352Z,-6.90
2018-02-25T13:49:41.882Z,-6.50
2018-02-25T13:52:09.443Z,-6.60
2018-02-25T13:54:37.009Z,-6.60
2018-02-25T13:57:04.594Z,-6.60
2018-02-25T13:59:32.339Z,-6.80
2018-02-25T14:01:59.985Z,-6.60
2018-02-25T14:04:28.316Z,-6.70
2018-02-25T14:06:55.837Z,-6.70
2018-02-25T14:09:23.415Z,-6.60
2018-02-25T14:11:50.931Z,-6.80
2018-02-25T14:14:18.468Z,-6.90
2018-02-25T14:16:46.052Z,-7.20
2018-02-25T14:19:13.608Z,-6.90
2018-02-25T14:21:41.212Z,-6.80
2018-02-25T14:24:09.553Z,-7.10
2018-02-25T14:26:37.183Z,-7.20
2018-02-25T14:29:04.705Z,-7.00
2018-02-25T14:31:32.626Z,-7.00
2018-02-25T14:34:00.190Z,-7.20
2018-02-25T14:36:27.753Z,-7.20
2018-02-25T14:38:55.311Z,-7.20
2018-02-25T14:41:22.990Z,-7.10
2018-02-25T14:43:50.513Z,-7.10
2018-02-25T14:46:18.884Z,-7.40
2018-02-25T14:48:46.427Z,-7.40
2018-02-25T14:51:13.943Z,-7.20
2018-02-25T14:53:41.477Z,-7.20
2018-02-25T14:56:09.761Z,-7.30
2018-02-25T14:58:38.073Z,-7.40
2018-02-25T15:01:05.751Z,-7.40
2018-02-25T15:03:33.349Z,-7.60
2018-02-25T15:06:01.420Z,-7.70
2018-02-25T15:08:29.036Z,-7.60
2018-02-25T15:10:56.585Z,-7.50
2018-02-25T15:13:25.020Z,-7.60
2018-02-25T15:15:52.570Z,-7.60
2018-02-25T15:18:20.093Z,-7.60
2018-02-25T15:20:48.497Z,-7.60
2018-02-25T15:23:16.044Z,-7.60
2018-02-25T15:25:44.390Z,-7.50
2018-02-25T15:28:12.064Z,-7.50
2018-02-25T15:30:39.619Z,-7.60
2018-02-25T15:33:07.247Z,-7.80
2018-02-25T15:35:35.018Z,-7.80
2018-02-25T15:38:02.596Z,-7.70
2018-02-25T15:40:30.110Z,-7.60
2018-02-25T15:42:58.418Z,-7.70
2018-02-25T15:45:25.983Z,-7.70
2018-02-25T15:47:53.572Z,-7.70
2018-02-25T15:50:21.151Z,-7.80
2018-02-25T15:52:48.686Z,-7.80
2018-02-25T15:55:16.259Z,-7.90
2018-02-25T15:57:43.867Z,-8.00
2018-02-25T16:00:12.215Z,-8.00
2018-02-25T16:02:39.763Z,-8.00
2018-02-25T16:05:07.371Z,-8.00
2018-02-25T16:07:34.959Z,-8.10
2018-02-25T16:10:02.524Z,-8.10
2018-02-25T16:12:30.865Z,-8.20
2018-02-25T16:14:58.431Z,-8.20
2018-02-25T16:17:26.028Z,-8.30
2018-02-25T16:19:54.380Z,-8.30
2018-02-25T16:22:21.942Z,-8.40
2018-02-25T16:24:49.535Z,-8.40
2018-02-25T16:27:17.884Z,-8.30
2018-02-25T16:29:45.449Z,-8.30
2018-02-25T16:32:12.961Z,-8.30
2018-02-25T16:34:40.553Z,-8.20
2018-02-25T16:37:08.096Z,-8.10
2018-02-25T16:39:35.642Z,-8.10
2018-02-25T16:42:03.983Z,-8.10
2018-02-25T16:44:31.608Z,-8.10
2018-02-25T16:46:59.144Z,-8.10
2018-02-25T16:49:27.485Z,-8.30
2018-02-25T16:51:55.040Z,-8.40
2018-02-25T16:54:22.566Z,-8.40
2018-02-25T16:56:50.118Z,-8.40
2018-02-25T16:59:18.447Z,-8.50
2018-02-25T17:01:45.977Z,-8.50
2018-02-25T17:04:13.547Z,-8.50
2018-02-25T17:06:41.213Z,-8.50
2018-02-25T17:09:08.780Z,-8.50
2018-02-25T17:11:36.374Z,-8.50
2018-02-25T17:14:03.924Z,-8.50
2018-02-25T17:16:31.466Z,-8.50
2018-02-25T17:18:59.025Z,-8.60
2018-02-25T17:21:27.375Z,-8.60
2018-02-25T17:23:54.952Z,-8.60
2018-02-25T17:26:22.531Z,-8.60
2018-02-25T17:28:50.922Z,-8.70
2018-02-25T17:31:18.479Z,-8.70
2018-02-25T17:33:46.827Z,-8.80
2018-02-25T17:36:14.354Z,-8.80
2018-02-25T17:38:41.922Z,-8.80
2018-02-25T17:41:10.519Z,-8.80
2018-02-25T17:43:38.052Z,-8.80
2018-02-25T17:46:05.623Z,-8.80
2018-02-25T17:48:33.304Z,-8.80
2018-02-25T17:51:00.832Z,-8.90
2018-02-25T17:53:29.293Z,-9.00
2018-02-25T17:55:56.906Z,-9.10
2018-02-25T17:58:24.590Z,-9.10
2018-02-25T18:00:52.180Z,-9.10
2018-02-25T18:03:19.901Z,-9.20
2018-02-25T18:05:47.464Z,-9.20
2018-02-25T18:08:14.992Z,-9.20
2018-02-25T18:10:42.651Z,-9.30
2018-02-25T18:13:10.246Z,-9.20
2018-02-25T18:15:37.910Z,-9.30
2018-02-25T18:18:06.324Z,-9.40
2018-02-25T18:20:33.883Z,-9.40
2018-02-25T18:23:01.507Z,-9.40
2018-02-25T18:25:29.931Z,-9.50
2018-02-25T18:27:57.502Z,-9.60
2018-02-25T18:30:25.179Z,-9.50
2018-02-25T18:32:52.742Z,-9.50
2018-02-25T18:35:20.346Z,-9.60
2018-02-25T18:37:48.838Z,-9.60
2018-02-25T18:40:17.292Z,-9.70
2018-02-25T18:42:44.946Z,-9.70
2018-02-25T18:45:12.638Z,-9.70
2018-02-25T18:47:41.039Z,-9.70
2018-02-25T18:50:09.406Z,-9.80
2018-02-25T18:52:37.023Z,-9.80
2018-02-25T18:55:04.640Z,-9.70
2018-02-25T18:57:32.498Z,-9.70
2018-02-25T19:00:00.186Z,-9.70
2018-02-25T19:02:28.608Z,-9.80
2018-02-25T19:04:56.239Z,-9.80
2018-02-25T19:07:24.589Z,-9.90
2018-02-25T19:09:52.203Z,-10.00
2018-02-25T19:12:19.885Z,-10.00
2018-02-25T19:14:47.496Z,-10.00
2018-02-25T19:17:15.130Z,-10.00
2018-02-25T19:19:43.117Z,-10.00
2018-02-25T19:22:10.933Z,-10.00
2018-02-25T19:24:38.800Z,-10.10
2018-02-25T19:27:07.182Z,-10.00
2018-02-25T19:29:35.587Z,-10.10
2018-02-25T19:32:03.564Z,-10.10
2018-02-25T19:34:31.243Z,-10.20
2018-02-25T19:37:04.546Z,-10.10
2018-02-25T19:39:37.822Z,-10.20
2018-02-25T19:42:05.777Z,-10.20
2018-02-25T19:44:34.385Z,-10.20
2018-02-25T19:47:01.971Z,-10.30
2018-02-25T19:49:29.641Z,-10.30
2018-02-25T19:51:57.190Z,-10.20
2018-02-25T19:54:24.757Z,-10.20
2018-02-25T19:56:52.320Z,-10.20
2018-02-25T19:59:19.968Z,-10.20
2018-02-25T20:01:47.579Z,-10.10
2018-02-25T20:04:15.298Z,-10.10
2018-02-25T20:06:42.861Z,-10.10
2018-02-25T20:09:10.464Z,-10.00
2018-02-25T20:11:38.011Z,-10.00
2018-02-25T20:14:05.984Z,-10.00
2018-02-25T20:16:33.649Z,-9.90
2018-02-25T20:19:01.618Z,-9.80
2018-02-25T20:21:29.240Z,-9.60
2018-02-25T20:23:56.866Z,-9.50
2018-02-25T20:26:24.496Z,-9.40
2018-02-25T20:28:52.119Z,-9.30
2018-02-25T20:31:19.802Z,-9.20
2018-02-25T20:33:47.351Z,-9.20
2018-02-25T20:36:15.015Z,-9.20
2018-02-25T20:38:42.710Z,-9.10
2018-02-25T20:41:11.083Z,-9.10
2018-02-25T20:43:38.636Z,-9.10
2018-02-25T20:46:06.300Z,-9.10
2018-02-25T20:48:33.866Z,-9.10
2018-02-25T20:51:01.449Z,-9.10
2018-02-25T20:53:30.008Z,-9.10
2018-02-25T20:55:57.653Z,-9.20
2018-02-25T20:58:25.203Z,-9.20
2018-02-25T21:00:52.914Z,-9.10
2018-02-25T21:03:20.504Z,-9.20
2018-02-25T21:05:48.852Z,-9.30
2018-02-25T21:08:16.427Z,-9.30
2018-02-25T21:10:43.967Z,-9.20
2018-02-25T21:13:11.493Z,-9.30
2018-02-25T21:15:39.066Z,-9.30
2018-02-25T21:18:06.687Z,-9.30
2018-02-25T21:20:34.314Z,-9.20
2018-02-25T21:23:01.937Z,-9.30
2018-02-25T21:25:30.328Z,-9.30
2018-02-25T21:27:58.010Z,-9.30
2018-02-25T21:30:25.768Z,-9.30
2018-02-25T21:32:54.213Z,-9.30
2018-02-25T21:35:21.988Z,-9.30
2018-02-25T21:37:49.618Z,-9.40
2018-02-25T21:40:17.407Z,-9.40
2018-02-25T21:42:45.107Z,-9.40
2018-02-25T21:45:13.451Z,-9.60
2018-02-25T21:47:41.028Z,-9.50
2018-02-25T21:50:08.664Z,-9.50
2018-02-25T21:52:36.241Z,-9.40
2018-02-25T21:55:03.828Z,-9.50
2018-02-25T21:57:37.209Z,-9.50
2018-02-25T22:00:10.508Z,-9.50
2018-02-25T22:02:43.900Z,-9.60
2018-02-25T22:05:11.433Z,-9.60
2018-02-25T22:07:39.034Z,-9.60
2018-02-25T22:10:06.665Z,-9.60
2018-02-25T22:12:34.194Z,-9.70
2018-02-25T22:15:02.502Z,-9.60
2018-02-25T22:17:30.067Z,-9.60
2018-02-25T22:19:57.604Z,-9.60
2018-02-25T22:22:25.894Z,-9.60
2018-02-25T22:24:54.207Z,-9.60
2018-02-25T22:27:21.744Z,-9.60
2018-02-25T22:29:49.269Z,-9.60
2018-02-25T22:32:16.931Z,-9.60
2018-02-25T22:34:44.482Z,-9.60
2018-02-25T22:37:12.037Z,-9.60
2018-02-25T22:39:39.646Z,-9.60
2018-02-25T22:42:07.982Z,-9.70
2018-02-25T22:44:35.512Z,-9.70
2018-02-25T22:47:03.080Z,-9.70
2018-02-25T22:49:30.607Z,-9.60
2018-02-25T22:51:58.182Z,-9.70
2018-02-25T22:54:26.497Z,-9.60
2018-02-25T22:56:54.058Z,-9.70
2018-02-25T22:59:21.599Z,-9.60
2018-02-25T23:01:50.009Z,-9.60
2018-02-25T23:04:17.547Z,-9.60
2018-02-25T23:06:45.837Z,-9.60
2018-02-25T23:09:14.143Z,-9.60
2018-02-25T23:11:41.670Z,-9.60
2018-02-25T23:14:09.952Z,-9.60
2018-02-25T23:16:38.353Z,-9.50
2018-02-25T23:19:05.912Z,-9.60
2018-02-25T23:21:33.460Z,-9.60
2018-02-25T23:24:01.784Z,-9.60
2018-02-25T23:26:29.314Z,-9.60
2018-02-25T23:28:57.640Z,-9.60
2018-02-25T23:31:25.261Z,-9.60
2018-02-25T23:33:53.558Z,-9.60
2018-02-25T23:36:21.092Z,-9.60
2018-02-25T23:38:49.396Z,-9.70
2018-02-25T23:41:16.910Z,-9.70
2018-02-25T23:43:44.452Z,-9.70
2018-02-25T23:46:12.004Z,-9.60
2018-02-25T23:48:39.536Z,-9.70
2018-02-25T23:51:07.832Z,-9.70
2018-02-25T23:53:35.374Z,-9.70
2018-02-25T23:56:03.651Z,-9.70
2018-02-25T23:58:31.980Z,-9.80
